createdAt,value
2019-02-20T00:01:05.220Z,101294.58
2019-02-20T00:03:31.652Z,101292.67
2019-02-20T00:05:58.864Z,101292.84
2019-02-20T00:08:25.074Z,101298.17
2019-02-20T00:10:51.269Z,101293.63
2019-02-20T00:13:17.485Z,101295.91
2019-02-20T00:15:43.845Z,101297.19
2019-02-20T00:18:09.926Z,101295.56
2019-02-20T00:20:36.153Z,101298.01
2019-02-20T00:23:02.328Z,101299.06
2019-02-20T00:25:28.535Z,101300.01
2019-02-20T00:27:54.765Z,101303.38
2019-02-20T00:30:21.301Z,101303.38
2019-02-20T00:32:49.726Z,101305.75
2019-02-20T00:35:16.460Z,101298.89
2019-02-20T00:37:42.818Z,101302.25
2019-02-20T00:40:10.445Z,101301.87
2019-02-20T00:42:36.649Z,101299.95
2019-02-20T00:45:16.928Z,101300.15
2019-02-20T00:48:00.347Z,101300.93
2019-02-20T00:50:28.477Z,101302.94
2019-02-20T00:53:08.940Z,101303.48
2019-02-20T00:55:35.147Z,101292.67
2019-02-20T00:58:01.212Z,101295.26
2019-02-20T01:00:27.319Z,101295.26
2019-02-20T01:02:53.411Z,101299.78
2019-02-20T01:05:19.772Z,101301.58
2019-02-20T01:07:45.855Z,101306.27
2019-02-20T01:10:12.064Z,101310.00
2019-02-20T01:12:38.158Z,101311.30
2019-02-20T01:15:07.615Z,101309.77
2019-02-20T01:17:33.976Z,101310.61
2019-02-20T01:20:00.421Z,101310.85
2019-02-20T01:22:26.832Z,101314.92
2019-02-20T01:24:52.931Z,101307.55
2019-02-20T01:27:19.101Z,101294.78
2019-02-20T01:29:45.197Z,101300.36
2019-02-20T01:32:11.305Z,101305.11
2019-02-20T01:34:37.474Z,101305.92
2019-02-20T01:37:03.775Z,101307.52
2019-02-20T01:39:30.074Z,101301.88
2019-02-20T01:41:56.391Z,101297.33
2019-02-20T01:44:22.495Z,101300.80
2019-02-20T01:46:48.579Z,101298.59
2019-02-20T01:49:14.665Z,101305.65
2019-02-20T01:51:41.292Z,101303.34
2019-02-20T01:54:10.717Z,101304.69
2019-02-20T01:56:37.055Z,101306.53
2019-02-20T01:59:03.256Z,101311.49
2019-02-20T02:01:29.467Z,101312.95
2019-02-20T02:03:55.776Z,101304.36
2019-02-20T02:06:22.044Z,101302.25
2019-02-20T02:08:48.166Z,101309.05
2019-02-20T02:11:14.510Z,101304.22
2019-02-20T02:13:40.597Z,101302.89
2019-02-20T02:16:06.894Z,101306.23
2019-02-20T02:18:32.973Z,101300.25
2019-02-20T02:20:59.208Z,101305.41
2019-02-20T02:23:25.336Z,101302.05
2019-02-20T02:25:51.588Z,101299.46
2019-02-20T02:28:17.693Z,101303.65
2019-02-20T02:30:43.903Z,101300.76
2019-02-20T02:33:10.018Z,101297.34
2019-02-20T02:35:36.115Z,101291.34
2019-02-20T02:38:02.420Z,101291.73
2019-02-20T02:40:28.509Z,101289.08
2019-02-20T02:42:54.594Z,101282.09
2019-02-20T02:45:20.817Z,101288.93
2019-02-20T02:47:46.962Z,101287.33
2019-02-20T02:50:13.143Z,101286.45
2019-02-20T02:52:39.362Z,101284.42
2019-02-20T02:55:05.703Z,101274.80
2019-02-20T02:57:31.810Z,101278.80
2019-02-20T02:59:57.983Z,101277.98
2019-02-20T03:02:24.129Z,101273.94
2019-02-20T03:04:50.220Z,101272.64
2019-02-20T03:07:16.325Z,101272.13
2019-02-20T03:09:42.573Z,101267.95
2019-02-20T03:12:08.660Z,101271.53
2019-02-20T03:14:34.843Z,101270.08
2019-02-20T03:17:01.059Z,101279.44
2019-02-20T03:19:27.281Z,101275.39
2019-02-20T03:21:53.391Z,101274.27
2019-02-20T03:24:19.613Z,101272.19
2019-02-20T03:26:45.979Z,101276.63
2019-02-20T03:29:12.168Z,101280.36
2019-02-20T03:31:38.230Z,101280.88
2019-02-20T03:34:04.385Z,101275.39
2019-02-20T03:36:30.583Z,101274.57
2019-02-20T03:38:56.775Z,101279.74
2019-02-20T03:41:23.086Z,101279.38
2019-02-20T03:43:49.257Z,101274.77
2019-02-20T03:46:15.464Z,101273.64
2019-02-20T03:48:41.641Z,101278.66
2019-02-20T03:51:07.949Z,101278.88
2019-02-20T03:53:34.152Z,101286.40
2019-02-20T03:56:00.335Z,101284.19
2019-02-20T03:58:26.475Z,101285.27
2019-02-20T04:00:52.654Z,101291.89
2019-02-20T04:03:18.876Z,101292.52
2019-02-20T04:05:44.985Z,101295.93
2019-02-20T04:08:11.097Z,101293.70
2019-02-20T04:10:37.317Z,101291.74
2019-02-20T04:13:03.535Z,101288.38
2019-02-20T04:15:30.082Z,101288.53
2019-02-20T04:17:56.284Z,101282.23
2019-02-20T04:20:22.494Z,101290.61
2019-02-20T04:22:48.592Z,101285.30
2019-02-20T04:25:14.812Z,101288.76
2019-02-20T04:27:40.907Z,101287.45
2019-02-20T04:30:08.125Z,101283.84
2019-02-20T04:32:34.206Z,101288.19
2019-02-20T04:35:00.445Z,101287.45
2019-02-20T04:37:26.527Z,101293.87
2019-02-20T04:39:52.708Z,101284.73
2019-02-20T04:42:18.890Z,101289.83
2019-02-20T04:44:45.068Z,101295.47
2019-02-20T04:47:11.146Z,101289.62
2019-02-20T04:49:37.261Z,101290.59
2019-02-20T04:52:05.717Z,101296.59
2019-02-20T04:54:31.825Z,101301.77
2019-02-20T04:56:58.034Z,101299.50
2019-02-20T04:59:24.220Z,101298.53
2019-02-20T05:01:50.444Z,101301.27
2019-02-20T05:04:16.558Z,101301.66
2019-02-20T05:06:42.778Z,101292.06
2019-02-20T05:09:08.852Z,101299.66
2019-02-20T05:11:35.178Z,101298.35
2019-02-20T05:14:06.085Z,101298.77
2019-02-20T05:16:32.209Z,101297.06
2019-02-20T05:18:58.351Z,101292.56
2019-02-20T05:21:24.535Z,101297.73
2019-02-20T05:23:50.628Z,101291.41
2019-02-20T05:26:16.690Z,101285.27
2019-02-20T05:28:42.924Z,101285.98
2019-02-20T05:31:10.648Z,101285.89
2019-02-20T05:33:36.922Z,101283.97
2019-02-20T05:36:12.464Z,101285.11
2019-02-20T05:38:38.638Z,101291.89
2019-02-20T05:41:04.713Z,101293.23
2019-02-20T05:43:30.850Z,101288.34
2019-02-20T05:45:57.100Z,101292.33
2019-02-20T05:48:23.195Z,101285.11
2019-02-20T05:50:49.319Z,101289.45
2019-02-20T05:53:15.533Z,101292.81
2019-02-20T05:55:41.708Z,101289.12
2019-02-20T05:58:07.912Z,101293.46
2019-02-20T06:00:34.107Z,101293.44
2019-02-20T06:03:00.358Z,101293.12
2019-02-20T06:05:26.442Z,101298.30
2019-02-20T06:07:52.563Z,101301.16
2019-02-20T06:10:18.870Z,101298.52
2019-02-20T06:12:45.133Z,101303.03
2019-02-20T06:15:11.409Z,101304.77
2019-02-20T06:17:37.488Z,101312.05
2019-02-20T06:20:17.011Z,101315.54
2019-02-20T06:22:43.192Z,101312.17
2019-02-20T06:25:15.254Z,101320.09
2019-02-20T06:27:41.394Z,101322.38
2019-02-20T06:30:09.932Z,101329.17
2019-02-20T06:32:37.072Z,101326.58
2019-02-20T06:35:05.769Z,101337.90
2019-02-20T06:37:32.018Z,101333.38
2019-02-20T06:39:58.156Z,101339.39
2019-02-20T06:42:24.407Z,101347.45
2019-02-20T06:44:50.669Z,101345.69
2019-02-20T06:47:16.862Z,101349.16
2019-02-20T06:49:46.205Z,101353.30
2019-02-20T06:52:12.428Z,101355.41
2019-02-20T06:54:38.615Z,101357.20
2019-02-20T06:57:04.702Z,101358.50
2019-02-20T06:59:30.931Z,101357.40
2019-02-20T07:01:57.115Z,101368.86
2019-02-20T07:04:23.435Z,101368.55
2019-02-20T07:06:53.390Z,101367.22
2019-02-20T07:09:39.975Z,101371.81
2019-02-20T07:12:22.013Z,101375.83
2019-02-20T07:17:42.114Z,101378.89
2019-02-20T07:20:41.344Z,101375.45
2019-02-20T07:23:23.230Z,101376.05
2019-02-20T07:26:13.519Z,101382.73
2019-02-20T07:28:46.410Z,101386.08
2019-02-20T07:31:12.749Z,101382.34
2019-02-20T07:33:38.866Z,101391.56
2019-02-20T07:36:05.812Z,101390.64
2019-02-20T07:38:31.913Z,101398.29
2019-02-20T07:40:58.034Z,101391.11
2019-02-20T07:43:24.127Z,101400.69
2019-02-20T07:45:50.196Z,101396.98
2019-02-20T07:48:16.343Z,101407.50
2019-02-20T07:53:09.453Z,101413.52
2019-02-20T07:55:35.542Z,101408.50
2019-02-20T07:58:05.613Z,101421.16
2019-02-20T08:00:31.936Z,101428.22
2019-02-20T08:02:58.050Z,101422.27
2019-02-20T08:05:24.246Z,101440.09
2019-02-20T08:07:50.345Z,101442.39
2019-02-20T08:10:16.465Z,101439.97
2019-02-20T08:12:42.683Z,101439.14
2019-02-20T08:15:14.678Z,101437.08
2019-02-20T08:17:41.103Z,101439.61
2019-02-20T08:20:09.305Z,101442.27
2019-02-20T08:22:35.614Z,101443.91
2019-02-20T08:25:01.917Z,101450.69
2019-02-20T08:27:29.087Z,101456.84
2019-02-20T08:29:55.158Z,101454.58
2019-02-20T08:32:21.285Z,101454.73
2019-02-20T08:34:47.341Z,101458.78
2019-02-20T08:37:13.433Z,101465.50
2019-02-20T08:39:39.524Z,101463.50
2019-02-20T08:42:05.849Z,101455.41
2019-02-20T08:44:32.050Z,101463.34
2019-02-20T08:46:58.344Z,101459.44
2019-02-20T08:49:24.577Z,101457.98
2019-02-20T08:51:50.680Z,101476.28
2019-02-20T08:54:16.882Z,101457.00
2019-02-20T08:56:43.112Z,101459.58
2019-02-20T08:59:09.185Z,101466.28
2019-02-20T09:01:35.431Z,101466.52
2019-02-20T09:04:02.332Z,101473.66
2019-02-20T09:06:28.938Z,101469.27
2019-02-20T09:08:55.139Z,101469.12
2019-02-20T09:11:21.255Z,101481.91
2019-02-20T09:13:47.362Z,101482.23
2019-02-20T09:16:15.958Z,101481.73
2019-02-20T09:18:42.162Z,101483.34
2019-02-20T09:21:10.171Z,101485.27
2019-02-20T09:23:37.138Z,101478.50
2019-02-20T09:26:03.552Z,101484.97
2019-02-20T09:28:29.777Z,101482.22
2019-02-20T09:30:55.989Z,101479.45
2019-02-20T09:33:22.120Z,101479.45
2019-02-20T09:35:48.238Z,101490.08
2019-02-20T09:38:14.348Z,101483.63
2019-02-20T09:40:40.469Z,101485.22
2019-02-20T09:43:06.704Z,101491.52
2019-02-20T09:45:41.702Z,101491.52
2019-02-20T09:48:05.384Z,101487.02
2019-02-20T09:50:31.589Z,101491.44
2019-02-20T09:52:57.865Z,101494.77
2019-02-20T09:55:24.068Z,101498.12
2019-02-20T09:57:50.167Z,101505.44
2019-02-20T10:00:17.655Z,101501.69
2019-02-20T10:02:44.018Z,101505.13
2019-02-20T10:05:15.090Z,101503.55
2019-02-20T10:07:41.207Z,101502.11
2019-02-20T10:10:09.033Z,101508.05
2019-02-20T10:12:35.231Z,101507.86
2019-02-20T12:10:16.233Z,101549.62
2019-02-20T12:12:43.643Z,101550.03
2019-02-20T12:15:10.165Z,101554.39
2019-02-20T12:17:37.565Z,101560.58
2019-02-20T12:20:06.370Z,101555.31
2019-02-20T12:22:32.551Z,101553.30
2019-02-20T12:24:59.366Z,101549.02
2019-02-20T12:27:25.776Z,101549.02
2019-02-20T12:29:51.879Z,101547.13
2019-02-20T12:32:18.310Z,101547.13
2019-02-20T12:34:46.542Z,101551.81
2019-02-20T12:37:13.011Z,101550.12
2019-02-20T12:39:39.098Z,101552.14
2019-02-20T12:42:05.622Z,101553.55
2019-02-20T12:44:31.952Z,101545.02
2019-02-20T12:46:59.353Z,101542.08
2019-02-20T12:49:25.575Z,101545.19
2019-02-20T12:51:51.900Z,101545.19
2019-02-20T12:54:18.195Z,101541.63
2019-02-20T12:56:44.425Z,101544.23
2019-02-20T12:59:10.703Z,101543.42
2019-02-20T13:01:38.245Z,101530.93
2019-02-20T13:04:04.577Z,101528.48
2019-02-20T13:06:31.894Z,101528.48
2019-02-20T13:08:58.234Z,101509.56
2019-02-20T13:11:24.554Z,101509.56
2019-02-20T13:13:50.776Z,101523.61
2019-02-20T13:16:17.071Z,101527.20
2019-02-20T13:18:43.191Z,101516.70
2019-02-20T13:21:10.987Z,101527.81
2019-02-20T13:23:37.540Z,101523.76
2019-02-20T13:26:06.129Z,101514.52
2019-02-20T13:28:32.190Z,101514.87
2019-02-20T13:30:58.451Z,101492.16
2019-02-20T13:33:25.042Z,101486.61
2019-02-20T13:35:51.273Z,101489.64
2019-02-20T13:38:17.560Z,101487.70
2019-02-20T13:40:44.436Z,101488.48
2019-02-20T13:43:12.867Z,101484.48
2019-02-20T13:45:39.311Z,101489.36
2019-02-20T13:48:05.842Z,101485.13
2019-02-20T13:50:32.314Z,101525.80
2019-02-20T13:52:58.494Z,101474.31
2019-02-20T13:55:34.074Z,101484.33
2019-02-20T13:57:53.171Z,101475.41
2019-02-20T14:00:19.360Z,101491.80
2019-02-20T14:02:45.712Z,101488.41
2019-02-20T14:05:11.914Z,101488.41
2019-02-20T14:07:39.560Z,101490.48
2019-02-20T14:10:10.641Z,101481.72
2019-02-20T14:12:38.376Z,101485.41
2019-02-20T14:15:08.296Z,101483.03
2019-02-20T14:17:34.635Z,101487.59
2019-02-20T14:20:00.739Z,101483.09
2019-02-20T14:22:27.477Z,101478.45
2019-02-20T14:24:54.187Z,101487.05
2019-02-20T14:27:20.600Z,101484.22
2019-02-20T14:29:46.982Z,101475.59
2019-02-20T14:32:13.225Z,101473.73
2019-02-20T14:34:39.345Z,101467.87
2019-02-20T14:37:05.463Z,101478.69
2019-02-20T14:39:31.697Z,101475.70
2019-02-20T14:41:57.914Z,101478.22
2019-02-20T14:44:24.172Z,101480.11
2019-02-20T14:46:50.795Z,101481.31
2019-02-20T14:49:17.038Z,101467.09
2019-02-20T14:51:43.227Z,101474.88
2019-02-20T14:54:09.347Z,101477.44
2019-02-20T14:56:35.519Z,101476.67
2019-02-20T14:59:01.808Z,101471.56
2019-02-20T15:01:28.266Z,101471.56
2019-02-20T15:03:54.380Z,101472.41
2019-02-20T15:06:20.579Z,101470.17
2019-02-20T15:08:47.095Z,101484.73
2019-02-20T15:11:13.419Z,101483.20
2019-02-20T15:13:57.921Z,101480.48
2019-02-20T15:16:42.520Z,101480.41
2019-02-20T15:19:29.776Z,101480.37
2019-02-20T15:21:56.117Z,101475.97
2019-02-20T15:24:22.393Z,101478.97
2019-02-20T15:26:48.643Z,101475.45
2019-02-20T15:29:14.814Z,101477.47
2019-02-20T15:31:41.917Z,101477.27
2019-02-20T15:34:08.497Z,101481.50
2019-02-20T15:36:34.924Z,101487.28
2019-02-20T15:39:01.338Z,101488.92
2019-02-20T15:41:28.620Z,101484.56
2019-02-20T15:43:54.852Z,101483.72
2019-02-20T15:46:21.081Z,101480.42
2019-02-20T15:48:47.420Z,101493.17
2019-02-20T15:51:14.040Z,101485.75
2019-02-20T15:53:41.468Z,101491.91
2019-02-20T15:56:13.773Z,101496.84
2019-02-20T15:58:47.413Z,101497.42
2019-02-20T16:01:14.051Z,101493.67
2019-02-20T16:03:40.410Z,101500.41
2019-02-20T16:06:06.857Z,101501.33
2019-02-20T16:08:33.165Z,101501.33
2019-02-20T16:11:06.065Z,101503.35
2019-02-20T16:13:32.523Z,101503.70
2019-02-20T16:15:59.018Z,101508.14
2019-02-20T16:18:25.558Z,101505.69
2019-02-20T16:20:52.120Z,101511.50
2019-02-20T16:23:19.673Z,101505.61
2019-02-20T16:25:46.132Z,101511.89
2019-02-20T16:28:12.398Z,101517.45
2019-02-20T16:30:38.986Z,101526.80
2019-02-20T16:33:07.707Z,101517.56
2019-02-20T16:35:34.298Z,101525.98
2019-02-20T16:40:40.490Z,101527.29
2019-02-20T16:43:06.961Z,101528.08
2019-02-20T16:45:33.767Z,101527.73
2019-02-20T16:48:00.167Z,101530.91
2019-02-20T16:50:26.263Z,101528.98
2019-02-20T16:52:52.865Z,101525.63
2019-02-20T16:55:19.682Z,101529.92
2019-02-20T16:57:46.670Z,101529.92
2019-02-20T17:00:14.315Z,101538.09
2019-02-20T17:02:41.297Z,101537.83
2019-02-20T17:05:14.202Z,101536.67
2019-02-20T17:07:40.304Z,101535.45
2019-02-20T17:10:10.920Z,101545.36
2019-02-20T17:12:37.265Z,101543.05
2019-02-20T17:15:14.606Z,101548.03
2019-02-20T17:17:40.968Z,101547.20
2019-02-20T17:20:10.609Z,101551.84
2019-02-20T17:22:37.018Z,101550.84
2019-02-20T17:25:04.840Z,101559.12
2019-02-20T17:27:31.049Z,101565.78
2019-02-20T17:29:57.560Z,101570.77
2019-02-20T17:32:24.034Z,101568.25
2019-02-20T17:34:50.259Z,101571.05
2019-02-20T17:37:16.696Z,101570.09
2019-02-20T17:39:43.109Z,101576.79
2019-02-20T17:42:09.838Z,101576.92
2019-02-20T17:44:36.246Z,101582.34
2019-02-20T17:47:02.550Z,101576.52
2019-02-20T17:49:28.708Z,101574.05
2019-02-20T17:51:54.969Z,101574.72
2019-02-20T17:54:21.248Z,101578.87
2019-02-20T17:56:47.356Z,101569.18
2019-02-20T17:59:13.952Z,101580.21
2019-02-20T18:01:40.400Z,101575.55
2019-02-20T18:04:06.517Z,101586.64
2019-02-20T18:06:32.727Z,101587.47
2019-02-20T18:08:59.188Z,101583.62
2019-02-20T18:11:25.634Z,101588.27
2019-02-20T18:13:52.010Z,101587.73
2019-02-20T18:16:18.373Z,101578.96
2019-02-20T18:18:45.802Z,101586.30
2019-02-20T18:21:12.230Z,101583.64
2019-02-20T18:23:38.611Z,101582.31
2019-02-20T18:26:04.834Z,101582.31
2019-02-20T18:28:31.153Z,101593.98
2019-02-20T18:30:57.731Z,101598.38
2019-02-20T18:33:24.204Z,101602.14
2019-02-20T18:35:50.820Z,101595.73
2019-02-20T18:38:17.206Z,101596.20
2019-02-20T18:40:43.636Z,101598.52
2019-02-20T18:43:09.968Z,101605.16
2019-02-20T18:45:36.286Z,101606.78
2019-02-20T18:48:02.869Z,101606.05
2019-02-20T18:50:29.305Z,101611.70
2019-02-20T18:52:55.774Z,101613.41
2019-02-20T18:55:22.004Z,101609.52
2019-02-20T18:57:48.312Z,101616.84
2019-02-20T19:00:19.063Z,101613.73
2019-02-20T19:02:45.714Z,101610.76
2019-02-20T19:05:12.228Z,101613.88
2019-02-20T19:07:38.701Z,101617.58
2019-02-20T19:10:14.692Z,101618.05
2019-02-20T19:12:44.810Z,101614.47
2019-02-20T19:15:29.611Z,101618.83
2019-02-20T19:18:02.689Z,101619.67
2019-02-20T19:20:38.658Z,101625.42
2019-02-20T19:23:25.264Z,101632.78
2019-02-20T19:26:01.339Z,101635.14
2019-02-20T19:28:54.330Z,101630.92
2019-02-20T19:31:40.949Z,101639.95
2019-02-20T19:34:23.679Z,101629.19
2019-02-20T19:37:00.007Z,101635.23
2019-02-20T19:39:39.072Z,101637.19
2019-02-20T19:42:11.956Z,101627.16
2019-02-20T19:44:54.291Z,101628.42
2019-02-20T19:47:40.953Z,101630.19
2019-02-20T19:50:38.323Z,101621.68
2019-02-20T19:53:17.453Z,101619.58
2019-02-20T19:56:11.938Z,101619.44
2019-02-20T19:59:04.669Z,101619.91
2019-02-20T20:02:09.992Z,101618.15
2019-02-20T20:04:52.316Z,101613.60
2019-02-20T20:07:57.588Z,101612.30
2019-02-20T20:10:30.862Z,101606.28
2019-02-20T20:13:00.943Z,101607.91
2019-02-20T20:15:42.722Z,101607.25
2019-02-20T20:18:39.245Z,101603.30
2019-02-20T20:21:27.901Z,101599.70
2019-02-20T20:24:22.779Z,101607.11
2019-02-20T20:27:09.763Z,101604.52
2019-02-20T20:29:45.698Z,101609.52
2019-02-20T20:32:31.909Z,101610.66
2019-02-20T20:35:23.616Z,101607.27
2019-02-20T20:38:05.653Z,101599.90
2019-02-20T20:40:50.550Z,101604.94
2019-02-20T20:43:32.603Z,101603.08
2019-02-20T20:46:08.766Z,101602.73
2019-02-20T20:48:50.726Z,101596.25
2019-02-20T20:51:40.795Z,101600.14
2019-02-20T20:54:23.284Z,101595.63
2019-02-20T20:56:57.719Z,101603.70
2019-02-20T20:59:28.063Z,101608.26
2019-02-20T21:02:01.093Z,101605.81
2019-02-20T21:04:38.941Z,101608.42
2019-02-20T21:07:12.217Z,101613.45
2019-02-20T21:09:53.905Z,101606.06
2019-02-20T21:12:30.239Z,101603.70
2019-02-20T21:15:12.369Z,101604.37
2019-02-20T21:17:54.069Z,101609.87
2019-02-20T21:20:42.562Z,101605.48
2019-02-20T21:23:21.532Z,101604.20
2019-02-20T21:26:03.587Z,101604.69
2019-02-20T21:28:45.764Z,101602.89
2019-02-20T21:31:27.603Z,101612.13
2019-02-20T21:34:03.930Z,101613.13
2019-02-20T21:36:51.132Z,101605.66
2019-02-20T21:39:27.531Z,101605.83
2019-02-20T21:42:12.802Z,101609.87
2019-02-20T21:45:04.022Z,101609.72
2019-02-20T21:47:37.150Z,101613.77
2019-02-20T21:50:16.103Z,101609.87
2019-02-20T21:53:03.183Z,101609.25
2019-02-20T21:55:36.041Z,101610.23
2019-02-20T21:58:12.450Z,101613.77
2019-02-20T22:00:42.399Z,101611.34
2019-02-20T22:03:18.540Z,101616.06
2019-02-20T22:05:58.464Z,101621.63
2019-02-20T22:08:56.334Z,101628.78
2019-02-20T22:11:26.573Z,101626.19
2019-02-20T22:14:11.932Z,101635.82
2019-02-20T22:17:08.919Z,101631.11
2019-02-20T22:19:47.847Z,101632.09
2019-02-20T22:22:25.639Z,101626.59
2019-02-20T22:25:15.341Z,101633.96
2019-02-20T22:28:14.848Z,101640.50
2019-02-20T22:30:57.302Z,101638.38
2019-02-20T22:33:27.390Z,101641.62
2019-02-20T22:36:14.096Z,101639.19
2019-02-20T22:38:53.300Z,101636.23
2019-02-20T22:41:26.237Z,101635.55
2019-02-20T22:44:22.286Z,101639.02
2019-02-20T22:47:13.816Z,101638.78
2019-02-20T22:49:45.335Z,101632.62
2019-02-20T22:52:21.227Z,101628.20
2019-02-20T22:55:00.312Z,101632.00
2019-02-20T22:57:55.743Z,101625.28
2019-02-20T23:00:52.208Z,101633.02
2019-02-20T23:03:36.479Z,101634.80
2019-02-20T23:06:23.662Z,101640.48
2019-02-20T23:09:15.294Z,101638.70
2019-02-20T23:11:55.040Z,101640.14
2019-02-20T23:14:31.937Z,101638.64
2019-02-20T23:16:58.771Z,101646.07
2019-02-20T23:19:24.949Z,101646.11
2019-02-20T23:21:51.457Z,101642.33
2019-02-20T23:24:17.581Z,101646.11
2019-02-20T23:26:43.825Z,101649.00
2019-02-20T23:29:10.234Z,101661.13
2019-02-20T23:31:36.614Z,101660.81
2019-02-20T23:34:05.956Z,101660.34
2019-02-20T23:36:32.388Z,101663.38
2019-02-20T23:38:58.652Z,101664.94
2019-02-20T23:41:24.759Z,101657.31
2019-02-20T23:43:51.161Z,101656.77
2019-02-20T23:46:17.603Z,101660.78
2019-02-20T23:48:43.842Z,101660.98
2019-02-20T23:51:10.072Z,101654.53
2019-02-20T23:53:36.440Z,101655.92
2019-02-20T23:56:04.818Z,101664.31
2019-02-20T23:58:31.479Z,101663.16
